createdAt,value
2019-02-20T00:00:58.261Z,101161.00
2019-02-20T00:03:28.530Z,101161.00
2019-02-20T00:05:59.227Z,101169.00
2019-02-20T00:08:29.689Z,101171.00
2019-02-20T00:11:00.328Z,101175.00
2019-02-20T00:13:33.264Z,101173.00
2019-02-20T00:16:03.581Z,101181.00
2019-02-20T00:18:34.033Z,101185.00
2019-02-20T00:21:04.363Z,101195.00
2019-02-20T00:23:34.813Z,101190.00
2019-02-20T00:26:07.663Z,101194.00
2019-02-20T00:28:38.263Z,101193.00
2019-02-20T00:31:08.653Z,101199.00
2019-02-20T00:33:39.103Z,101192.00
2019-02-20T00:36:09.429Z,101186.00
2019-02-20T00:38:39.814Z,101192.00
2019-02-20T00:41:10.253Z,101187.00
2019-02-20T00:43:42.213Z,101176.00
2019-02-20T00:46:20.737Z,101184.00
2019-02-20T00:49:19.066Z,101188.00
2019-02-20T00:52:11.495Z,101183.00
2019-02-20T00:54:42.591Z,101191.00
2019-02-20T00:57:13.181Z,101188.00
2019-02-20T00:59:44.025Z,101199.00
2019-02-20T01:02:14.326Z,101196.00
2019-02-20T01:04:44.660Z,101192.00
2019-02-20T01:07:14.974Z,101186.00
2019-02-20T01:09:45.457Z,101193.00
2019-02-20T01:12:15.755Z,101193.00
2019-02-20T01:14:46.846Z,101187.00
2019-02-20T01:17:17.408Z,101186.00
2019-02-20T01:19:47.944Z,101188.00
2019-02-20T01:22:18.333Z,101186.00
2019-02-20T01:24:48.901Z,101179.00
2019-02-20T01:27:19.463Z,101175.00
2019-02-20T01:29:49.897Z,101185.00
2019-02-20T01:32:21.345Z,101185.00
2019-02-20T01:34:51.584Z,101184.00
2019-02-20T01:37:21.965Z,101185.00
2019-02-20T01:39:53.803Z,101192.00
2019-02-20T01:42:24.116Z,101190.00
2019-02-20T01:44:54.497Z,101182.00
2019-02-20T01:47:25.230Z,101183.00
2019-02-20T01:49:55.555Z,101169.00
2019-02-20T01:52:25.897Z,101181.00
2019-02-20T01:54:56.254Z,101166.00
2019-02-20T01:57:26.568Z,101176.00
2019-02-20T01:59:57.031Z,101164.00
2019-02-20T02:02:27.333Z,101157.00
2019-02-20T02:04:57.679Z,101165.00
2019-02-20T02:07:28.061Z,101168.00
2019-02-20T02:09:58.442Z,101173.00
2019-02-20T02:12:28.914Z,101166.00
2019-02-20T02:14:59.256Z,101185.00
2019-02-20T02:17:29.715Z,101170.00
2019-02-20T02:19:59.999Z,101175.00
2019-02-20T02:22:30.300Z,101177.00
2019-02-20T02:25:00.753Z,101193.00
2019-02-20T02:27:31.494Z,101191.00
2019-02-20T02:30:01.864Z,101178.00
2019-02-20T02:32:32.252Z,101178.00
2019-02-20T02:35:02.505Z,101184.00
2019-02-20T02:37:32.908Z,101192.00
2019-02-20T02:40:03.277Z,101173.00
2019-02-20T02:42:33.862Z,101177.00
2019-02-20T02:45:04.310Z,101175.00
2019-02-20T02:47:37.136Z,101190.00
2019-02-20T02:50:07.810Z,101185.00
2019-02-20T02:52:38.098Z,101189.00
2019-02-20T02:55:08.932Z,101184.00
2019-02-20T02:57:39.402Z,101175.00
2019-02-20T03:00:09.905Z,101174.00
2019-02-20T03:02:40.345Z,101187.00
2019-02-20T03:05:12.934Z,101176.00
2019-02-20T03:07:43.422Z,101178.00
2019-02-20T03:10:14.270Z,101180.00
2019-02-20T03:12:45.393Z,101174.00
2019-02-20T03:15:15.702Z,101179.00
2019-02-20T03:17:46.148Z,101182.00
2019-02-20T03:20:16.450Z,101183.00
2019-02-20T03:22:46.750Z,101182.00
2019-02-20T03:25:17.233Z,101180.00
2019-02-20T03:27:48.278Z,101198.00
2019-02-20T03:30:18.604Z,101190.00
2019-02-20T03:32:48.938Z,101191.00
2019-02-20T03:35:19.244Z,101193.00
2019-02-20T03:37:49.669Z,101190.00
2019-02-20T03:40:19.999Z,101195.00
2019-02-20T03:42:51.318Z,101178.00
2019-02-20T03:45:23.000Z,101192.00
2019-02-20T03:47:53.386Z,101189.00
2019-02-20T03:50:23.898Z,101188.00
2019-02-20T03:52:54.586Z,101188.00
2019-02-20T03:55:24.868Z,101185.00
2019-02-20T03:57:55.344Z,101183.00
2019-02-20T04:00:29.145Z,101185.00
2019-02-20T04:02:59.528Z,101178.00
2019-02-20T04:05:31.102Z,101180.00
2019-02-20T04:08:02.836Z,101178.00
2019-02-20T04:10:33.252Z,101180.00
2019-02-20T04:13:03.601Z,101181.00
2019-02-20T04:15:34.442Z,101177.00
2019-02-20T04:18:06.634Z,101174.00
2019-02-20T04:20:37.202Z,101187.00
2019-02-20T04:23:07.599Z,101181.00
2019-02-20T04:25:37.960Z,101177.00
2019-02-20T04:28:08.746Z,101176.00
2019-02-20T04:30:39.455Z,101181.00
2019-02-20T04:33:09.848Z,101178.00
2019-02-20T04:35:40.341Z,101182.00
2019-02-20T04:38:10.624Z,101170.00
2019-02-20T04:40:40.936Z,101178.00
2019-02-20T04:43:11.304Z,101193.00
2019-02-20T04:45:41.828Z,101191.00
2019-02-20T04:48:12.759Z,101196.00
2019-02-20T04:50:43.101Z,101189.00
2019-02-20T04:53:13.538Z,101194.00
2019-02-20T04:55:44.128Z,101199.00
2019-02-20T04:58:19.291Z,101198.00
2019-02-20T05:00:52.496Z,101194.00
2019-02-20T05:03:23.318Z,101188.00
2019-02-20T05:05:54.027Z,101183.00
2019-02-20T05:08:24.391Z,101195.00
2019-02-20T05:10:55.042Z,101205.00
2019-02-20T05:13:25.472Z,101201.00
2019-02-20T05:15:56.070Z,101190.00
2019-02-20T05:18:26.522Z,101195.00
2019-02-20T05:20:56.866Z,101199.00
2019-02-20T05:23:27.175Z,101196.00
2019-02-20T05:25:57.911Z,101193.00
2019-02-20T05:28:28.263Z,101183.00
2019-02-20T05:30:58.649Z,101181.00
2019-02-20T05:33:28.993Z,101188.00
2019-02-20T05:35:59.471Z,101191.00
2019-02-20T05:38:29.833Z,101192.00
2019-02-20T05:41:00.431Z,101200.00
2019-02-20T05:43:30.910Z,101205.00
2019-02-20T05:46:01.369Z,101202.00
2019-02-20T05:48:31.899Z,101185.00
2019-02-20T05:51:02.255Z,101194.00
2019-02-20T05:53:35.367Z,101193.00
2019-02-20T05:56:05.797Z,101183.00
2019-02-20T05:58:36.019Z,101198.00
2019-02-20T06:01:06.573Z,101196.00
2019-02-20T06:03:36.927Z,101194.00
2019-02-20T06:06:07.161Z,101210.00
2019-02-20T06:08:37.409Z,101191.00
2019-02-20T06:11:14.474Z,101204.00
2019-02-20T06:13:39.342Z,101206.00
2019-02-20T06:16:09.616Z,101201.00
2019-02-20T06:18:39.990Z,101203.00
2019-02-20T06:21:10.312Z,101213.00
2019-02-20T06:23:42.811Z,101212.00
2019-02-20T06:26:13.045Z,101212.00
2019-02-20T06:28:43.138Z,101222.00
2019-02-20T06:31:13.431Z,101212.00
2019-02-20T06:33:43.765Z,101215.00
2019-02-20T06:36:14.128Z,101220.00
2019-02-20T06:38:44.603Z,101221.00
2019-02-20T06:41:15.002Z,101225.00
2019-02-20T06:43:45.733Z,101226.00
2019-02-20T06:46:16.913Z,101224.00
2019-02-20T06:48:48.899Z,101219.00
2019-02-20T06:51:19.467Z,101234.00
2019-02-20T06:53:50.001Z,101236.00
2019-02-20T06:56:20.873Z,101242.00
2019-02-20T06:58:52.259Z,101233.00
2019-02-20T07:01:24.773Z,101251.00
2019-02-20T07:03:55.827Z,101248.00
2019-02-20T07:06:56.318Z,101250.00
2019-02-20T07:10:21.610Z,101256.00
2019-02-20T07:13:39.127Z,101257.00
2019-02-20T07:16:55.459Z,101262.00
2019-02-20T07:19:33.255Z,101269.00
2019-02-20T07:22:57.199Z,101262.00
2019-02-20T07:26:14.643Z,101262.00
2019-02-20T07:29:21.732Z,101269.00
2019-02-20T07:31:52.541Z,101271.00
2019-02-20T07:34:23.440Z,101272.00
2019-02-20T07:36:55.168Z,101273.00
2019-02-20T07:39:26.127Z,101287.00
2019-02-20T07:41:56.938Z,101288.00
2019-02-20T07:44:27.475Z,101287.00
2019-02-20T07:46:58.101Z,101290.00
2019-02-20T07:49:29.004Z,101295.00
2019-02-20T07:52:01.004Z,101297.00
2019-02-20T07:54:31.985Z,101292.00
2019-02-20T07:57:02.826Z,101306.00
2019-02-20T07:59:34.026Z,101295.00
2019-02-20T08:02:05.189Z,101313.00
2019-02-20T08:04:36.292Z,101309.00
2019-02-20T08:07:07.589Z,101316.00
2019-02-20T08:09:38.622Z,101327.00
2019-02-20T08:12:10.146Z,101334.00
2019-02-20T08:14:41.358Z,101322.00
2019-02-20T08:17:12.656Z,101316.00
2019-02-20T08:19:43.902Z,101320.00
2019-02-20T08:22:14.631Z,101332.00
2019-02-20T08:24:45.292Z,101338.00
2019-02-20T08:27:16.405Z,101338.00
2019-02-20T08:29:47.590Z,101347.00
2019-02-20T08:32:18.715Z,101342.00
2019-02-20T08:34:50.809Z,101350.00
2019-02-20T08:37:21.431Z,101351.00
2019-02-20T08:39:52.445Z,101364.00
2019-02-20T08:42:23.834Z,101368.00
2019-02-20T08:44:54.737Z,101370.00
2019-02-20T08:47:26.343Z,101368.00
2019-02-20T08:49:57.175Z,101371.00
2019-02-20T08:52:28.128Z,101380.00
2019-02-20T08:54:59.263Z,101386.00
2019-02-20T08:57:30.542Z,101375.00
2019-02-20T09:00:05.425Z,101387.00
2019-02-20T09:02:36.923Z,101394.00
2019-02-20T09:05:08.936Z,101393.00
2019-02-20T09:07:39.801Z,101400.00
2019-02-20T09:10:11.822Z,101395.00
2019-02-20T09:12:42.713Z,101404.00
2019-02-20T09:15:16.288Z,101409.00
2019-02-20T09:17:47.719Z,101406.00
2019-02-20T09:20:18.814Z,101416.00
2019-02-20T09:22:49.626Z,101413.00
2019-02-20T09:25:20.486Z,101416.00
2019-02-20T09:27:52.729Z,101416.00
2019-02-20T09:30:28.882Z,101414.00
2019-02-20T09:33:01.922Z,101414.00
2019-02-20T09:35:32.620Z,101409.00
2019-02-20T09:38:03.262Z,101408.00
2019-02-20T09:40:34.043Z,101414.00
2019-02-20T09:43:06.532Z,101404.00
2019-02-20T09:45:41.970Z,101410.00
2019-02-20T09:48:09.986Z,101411.00
2019-02-20T09:50:40.588Z,101415.00
2019-02-20T09:53:12.144Z,101416.00
2019-02-20T09:55:51.284Z,101407.00
2019-02-20T09:58:15.128Z,101415.00
2019-02-20T10:00:45.862Z,101428.00
2019-02-20T10:03:16.493Z,101426.00
2019-02-20T10:05:47.140Z,101420.00
2019-02-20T10:08:17.715Z,101418.00
2019-02-20T10:10:49.633Z,101423.00
2019-02-20T10:13:20.259Z,101438.00
2019-02-20T10:15:51.301Z,101443.00
2019-02-20T10:18:25.154Z,101434.00
2019-02-20T10:20:55.766Z,101442.00
2019-02-20T10:23:26.437Z,101446.00
2019-02-20T10:26:01.191Z,101447.00
2019-02-20T10:28:31.434Z,101445.00
2019-02-20T10:31:02.214Z,101449.00
2019-02-20T10:33:32.790Z,101444.00
2019-02-20T10:36:03.552Z,101446.00
2019-02-20T10:38:34.398Z,101442.00
2019-02-20T10:41:04.986Z,101450.00
2019-02-20T10:43:35.926Z,101448.00
2019-02-20T10:46:06.560Z,101450.00
2019-02-20T10:48:37.333Z,101448.00
2019-02-20T10:51:08.045Z,101444.00
2019-02-20T10:53:38.672Z,101447.00
2019-02-20T10:56:09.837Z,101443.00
2019-02-20T10:58:41.013Z,101438.00
2019-02-20T11:01:12.716Z,101453.00
2019-02-20T11:03:43.492Z,101461.00
2019-02-20T11:06:14.147Z,101455.00
2019-02-20T11:08:45.101Z,101453.00
2019-02-20T11:11:15.884Z,101454.00
2019-02-20T11:13:47.156Z,101461.00
2019-02-20T11:16:19.835Z,101455.00
2019-02-20T11:18:54.190Z,101457.00
2019-02-20T11:21:24.868Z,101456.00
2019-02-20T11:23:55.454Z,101447.00
2019-02-20T11:26:26.279Z,101459.00
2019-02-20T11:28:57.167Z,101453.00
2019-02-20T11:31:27.746Z,101461.00
2019-02-20T11:33:58.462Z,101467.00
2019-02-20T11:36:29.083Z,101471.00
2019-02-20T11:38:59.726Z,101465.00
2019-02-20T11:41:30.405Z,101474.00
2019-02-20T11:44:01.278Z,101469.00
2019-02-20T11:46:32.386Z,101462.00
2019-02-20T11:49:02.735Z,101464.00
2019-02-20T11:51:33.175Z,101468.00
2019-02-20T11:54:04.031Z,101465.00
2019-02-20T11:56:35.036Z,101469.00
2019-02-20T11:59:05.921Z,101465.00
2019-02-20T12:01:36.412Z,101459.00
2019-02-20T12:04:07.219Z,101466.00
2019-02-20T12:06:37.706Z,101460.00
2019-02-20T12:09:09.948Z,101463.00
2019-02-20T12:11:40.516Z,101457.00
2019-02-20T12:14:11.080Z,101468.00
2019-02-20T12:16:41.930Z,101446.00
2019-02-20T12:19:12.607Z,101468.00
2019-02-20T12:21:43.328Z,101451.00
2019-02-20T12:24:14.312Z,101455.00
2019-02-20T12:26:45.222Z,101453.00
2019-02-20T12:29:15.804Z,101464.00
2019-02-20T12:31:52.294Z,101471.00
2019-02-20T12:34:21.762Z,101451.00
2019-02-20T12:36:52.633Z,101454.00
2019-02-20T12:39:23.283Z,101443.00
2019-02-20T12:41:53.857Z,101457.00
2019-02-20T12:44:24.915Z,101454.00
2019-02-20T12:46:55.847Z,101457.00
2019-02-20T12:49:26.461Z,101464.00
2019-02-20T12:51:57.137Z,101468.00
2019-02-20T12:54:27.662Z,101470.00
2019-02-20T12:56:59.837Z,101469.00
2019-02-20T12:59:30.169Z,101468.00
2019-02-20T13:02:00.656Z,101467.00
2019-02-20T13:04:31.481Z,101464.00
2019-02-20T13:07:02.311Z,101463.00
2019-02-20T13:09:33.269Z,101467.00
2019-02-20T13:12:04.009Z,101458.00
2019-02-20T13:14:34.622Z,101455.00
2019-02-20T13:17:05.133Z,101451.00
2019-02-20T13:19:35.809Z,101458.00
2019-02-20T13:22:06.472Z,101447.00
2019-02-20T13:24:39.040Z,101443.00
2019-02-20T13:27:10.415Z,101448.00
2019-02-20T13:29:41.060Z,101457.00
2019-02-20T13:32:11.677Z,101450.00
2019-02-20T13:34:42.243Z,101448.00
2019-02-20T13:37:13.027Z,101458.00
2019-02-20T13:39:43.660Z,101445.00
2019-02-20T13:42:21.661Z,101455.00
2019-02-20T13:44:53.871Z,101454.00
2019-02-20T13:47:24.573Z,101447.00
2019-02-20T13:49:56.714Z,101447.00
2019-02-20T13:52:27.170Z,101457.00
2019-02-20T13:54:57.724Z,101455.00
2019-02-20T13:57:28.363Z,101451.00
2019-02-20T13:59:59.202Z,101445.00
2019-02-20T14:02:30.055Z,101446.00
2019-02-20T14:05:00.708Z,101446.00
2019-02-20T14:07:31.376Z,101451.00
2019-02-20T14:10:02.079Z,101441.00
2019-02-20T14:12:32.584Z,101454.00
2019-02-20T14:15:03.324Z,101454.00
2019-02-20T14:17:33.914Z,101451.00
2019-02-20T14:20:05.255Z,101464.00
2019-02-20T14:22:39.027Z,101452.00
2019-02-20T14:25:10.237Z,101455.00
2019-02-20T14:27:40.881Z,101452.00
2019-02-20T14:30:11.529Z,101457.00
2019-02-20T14:32:42.203Z,101464.00
2019-02-20T14:35:14.762Z,101448.00
2019-02-20T14:37:45.005Z,101447.00
2019-02-20T14:40:16.522Z,101455.00
2019-02-20T14:42:48.365Z,101445.00
2019-02-20T14:45:19.311Z,101450.00
2019-02-20T14:47:50.677Z,101448.00
2019-02-20T14:50:22.157Z,101460.00
2019-02-20T14:52:52.778Z,101455.00
2019-02-20T14:55:23.803Z,101450.00
2019-02-20T14:57:54.862Z,101470.00
2019-02-20T15:00:25.761Z,101447.00
2019-02-20T15:02:57.159Z,101447.00
2019-02-20T15:05:27.929Z,101449.00
2019-02-20T15:07:58.919Z,101458.00
2019-02-20T15:10:29.817Z,101451.00
2019-02-20T15:13:00.251Z,101459.00
2019-02-20T15:15:30.804Z,101458.00
2019-02-20T15:18:02.535Z,101467.00
2019-02-20T15:20:33.340Z,101467.00
2019-02-20T15:23:05.706Z,101459.00
2019-02-20T15:25:36.399Z,101457.00
2019-02-20T15:28:07.118Z,101457.00
2019-02-20T15:30:38.057Z,101466.00
2019-02-20T15:33:08.655Z,101461.00
2019-02-20T15:35:39.400Z,101465.00
2019-02-20T15:38:13.304Z,101466.00
2019-02-20T15:40:44.547Z,101456.00
2019-02-20T15:43:15.831Z,101462.00
2019-02-20T15:45:46.461Z,101457.00
2019-02-20T15:48:23.019Z,101463.00
2019-02-20T15:50:48.949Z,101464.00
2019-02-20T15:53:19.718Z,101473.00
2019-02-20T15:55:50.203Z,101467.00
2019-02-20T15:58:23.875Z,101483.00
2019-02-20T16:00:56.946Z,101471.00
2019-02-20T16:03:26.847Z,101472.00
2019-02-20T16:05:57.368Z,101482.00
2019-02-20T16:08:28.124Z,101483.00
2019-02-20T16:10:59.222Z,101479.00
2019-02-20T16:13:30.219Z,101480.00
2019-02-20T16:16:00.868Z,101485.00
2019-02-20T16:18:31.686Z,101489.00
2019-02-20T16:21:02.204Z,101486.00
2019-02-20T16:23:32.571Z,101496.00
2019-02-20T16:26:03.658Z,101495.00
2019-02-20T16:28:34.264Z,101495.00
2019-02-20T16:31:04.766Z,101495.00
2019-02-20T16:33:38.270Z,101501.00
2019-02-20T16:36:08.767Z,101496.00
2019-02-20T16:38:39.738Z,101503.00
2019-02-20T16:41:10.028Z,101504.00
2019-02-20T16:43:40.466Z,101511.00
2019-02-20T16:46:10.624Z,101509.00
2019-02-20T16:48:41.252Z,101498.00
2019-02-20T16:51:11.473Z,101501.00
2019-02-20T16:53:42.002Z,101484.00
2019-02-20T16:56:12.283Z,101499.00
2019-02-20T16:58:43.195Z,101504.00
2019-02-20T17:01:16.096Z,101499.00
2019-02-20T17:03:45.910Z,101511.00
2019-02-20T17:06:17.288Z,101515.00
2019-02-20T17:08:47.480Z,101515.00
2019-02-20T17:11:17.794Z,101510.00
2019-02-20T17:13:49.512Z,101517.00
2019-02-20T17:16:20.028Z,101514.00
2019-02-20T17:18:50.932Z,101517.00
2019-02-20T17:21:21.553Z,101517.00
2019-02-20T17:23:51.862Z,101532.00
2019-02-20T17:26:22.371Z,101531.00
2019-02-20T17:28:52.932Z,101532.00
2019-02-20T17:31:23.346Z,101534.00
2019-02-20T17:33:54.898Z,101534.00
2019-02-20T17:36:25.353Z,101539.00
2019-02-20T17:38:55.974Z,101542.00
2019-02-20T17:41:29.196Z,101543.00
2019-02-20T17:43:59.638Z,101547.00
2019-02-20T17:46:29.947Z,101550.00
2019-02-20T17:49:00.275Z,101558.00
2019-02-20T17:51:32.310Z,101543.00
2019-02-20T17:54:02.664Z,101554.00
2019-02-20T17:56:33.097Z,101556.00
2019-02-20T17:59:03.520Z,101559.00
2019-02-20T18:01:34.990Z,101560.00
2019-02-20T18:04:05.533Z,101554.00
2019-02-20T18:06:42.526Z,101562.00
2019-02-20T18:09:13.665Z,101559.00
2019-02-20T18:11:44.155Z,101560.00
2019-02-20T18:14:14.787Z,101569.00
2019-02-20T18:16:45.896Z,101558.00
2019-02-20T18:19:16.724Z,101562.00
2019-02-20T18:21:47.137Z,101561.00
2019-02-20T18:24:17.498Z,101556.00
2019-02-20T18:26:48.046Z,101558.00
2019-02-20T18:29:18.553Z,101562.00
2019-02-20T18:31:48.919Z,101557.00
2019-02-20T18:34:19.326Z,101561.00
2019-02-20T18:36:49.753Z,101566.00
2019-02-20T18:39:20.289Z,101564.00
2019-02-20T18:41:50.584Z,101558.00
2019-02-20T18:44:20.829Z,101550.00
2019-02-20T18:46:51.268Z,101562.00
2019-02-20T18:49:21.587Z,101569.00
2019-02-20T18:51:51.945Z,101561.00
2019-02-20T18:54:22.875Z,101569.00
2019-02-20T18:56:55.247Z,101564.00
2019-02-20T18:59:25.624Z,101561.00
2019-02-20T19:01:56.040Z,101560.00
2019-02-20T19:04:26.452Z,101568.00
2019-02-20T19:06:56.773Z,101573.00
2019-02-20T19:09:31.023Z,101568.00
2019-02-20T19:12:20.471Z,101585.00
2019-02-20T19:15:20.889Z,101573.00
2019-02-20T19:18:37.018Z,101585.00
2019-02-20T19:21:57.383Z,101580.00
2019-02-20T19:25:05.621Z,101583.00
2019-02-20T19:28:05.664Z,101571.00
2019-02-20T19:31:14.328Z,101582.00
2019-02-20T19:34:03.796Z,101580.00
2019-02-20T19:37:03.293Z,101588.00
2019-02-20T19:39:46.945Z,101584.00
2019-02-20T19:42:31.526Z,101582.00
2019-02-20T19:45:39.038Z,101592.00
2019-02-20T19:48:25.493Z,101584.00
2019-02-20T19:51:04.836Z,101584.00
2019-02-20T19:54:16.410Z,101581.00
2019-02-20T19:57:22.442Z,101579.00
2019-02-20T20:00:34.650Z,101577.00
2019-02-20T20:03:40.804Z,101591.00
2019-02-20T20:06:51.591Z,101580.00
2019-02-20T20:09:38.809Z,101586.00
2019-02-20T20:12:53.103Z,101584.00
2019-02-20T20:15:50.808Z,101582.00
2019-02-20T20:18:50.254Z,101586.00
2019-02-20T20:22:00.069Z,101570.00
2019-02-20T20:29:13.618Z,101569.00
2019-02-20T20:32:07.613Z,101576.00
2019-02-20T20:35:43.484Z,101563.00
2019-02-20T20:39:00.872Z,101574.00
2019-02-20T20:42:12.554Z,101567.00
2019-02-20T20:45:26.916Z,101572.00
2019-02-20T20:48:38.270Z,101581.00
2019-02-20T20:51:33.912Z,101576.00
2019-02-20T20:54:31.351Z,101574.00
2019-02-20T20:57:53.557Z,101572.00
2019-02-20T21:01:13.098Z,101568.00
2019-02-20T21:03:58.906Z,101558.00
2019-02-20T21:06:44.305Z,101567.00
2019-02-20T21:09:40.565Z,101563.00
2019-02-20T21:12:53.741Z,101570.00
2019-02-20T21:15:51.992Z,101563.00
2019-02-20T21:18:45.264Z,101560.00
2019-02-20T21:22:05.679Z,101559.00
2019-02-20T21:25:14.214Z,101557.00
2019-02-20T21:28:20.194Z,101562.00
2019-02-20T21:31:47.214Z,101569.00
2019-02-20T21:35:01.542Z,101565.00
2019-02-20T21:38:12.245Z,101565.00
2019-02-20T21:41:12.562Z,101569.00
2019-02-20T21:44:36.209Z,101568.00
2019-02-20T21:47:19.188Z,101571.00
2019-02-20T21:50:14.933Z,101570.00
2019-02-20T21:53:06.730Z,101573.00
2019-02-20T21:56:19.550Z,101568.00
2019-02-20T21:59:20.509Z,101573.00
2019-02-20T22:02:05.420Z,101574.00
2019-02-20T22:04:49.870Z,101579.00
2019-02-20T22:07:48.922Z,101579.00
2019-02-20T22:10:58.776Z,101589.00
2019-02-20T22:14:03.730Z,101579.00
2019-02-20T22:16:57.034Z,101577.00
2019-02-20T22:20:08.278Z,101567.00
2019-02-20T22:23:03.810Z,101582.00
2019-02-20T22:25:56.831Z,101575.00
2019-02-20T22:28:40.017Z,101575.00
2019-02-20T22:31:47.503Z,101580.00
2019-02-20T22:35:03.892Z,101581.00
2019-02-20T22:38:12.332Z,101571.00
2019-02-20T22:41:13.206Z,101591.00
2019-02-20T22:44:12.515Z,101585.00
2019-02-20T22:47:14.520Z,101598.00
2019-02-20T22:50:09.138Z,101592.00
2019-02-20T22:52:58.570Z,101593.00
2019-02-20T22:56:26.837Z,101607.00
2019-02-20T22:59:42.338Z,101604.00
2019-02-20T23:03:02.850Z,101600.00
2019-02-20T23:06:13.352Z,101601.00
2019-02-20T23:09:37.273Z,101604.00
2019-02-20T23:13:03.615Z,101597.00
2019-02-20T23:15:34.470Z,101599.00
2019-02-20T23:18:05.222Z,101600.00
2019-02-20T23:20:35.776Z,101597.00
2019-02-20T23:23:06.268Z,101606.00
2019-02-20T23:25:36.661Z,101590.00
2019-02-20T23:28:07.000Z,101597.00
2019-02-20T23:30:37.297Z,101618.00
2019-02-20T23:33:08.050Z,101613.00
2019-02-20T23:35:38.408Z,101609.00
2019-02-20T23:38:08.796Z,101614.00
2019-02-20T23:40:39.222Z,101609.00
2019-02-20T23:43:12.900Z,101609.00
2019-02-20T23:45:43.208Z,101616.00
2019-02-20T23:48:15.432Z,101612.00
2019-02-20T23:50:45.794Z,101598.00
2019-02-20T23:53:18.665Z,101616.00
2019-02-20T23:55:48.264Z,101616.00
2019-02-20T23:58:18.624Z,101604.00
